Terminal Aerodrome Forecast
Issued by NWS Louisville, KY

Home | Current Version | Previous Version | Text Only | Print | Product List | Glossary On
Versions: 1 2 3 4 5 6 7 8 9 10 11 12 13 14 15 16 17 18 19 20 21 22 23
790
FTUS43 KLMK 260801 AAA
TAFSDF
TAF AMD
KSDF 260801Z 2608/2712 15008KT P6SM -SHRA SCT012 BKN028
      TEMPO 2608/2611 BKN012
     FM261300 19012KT P6SM VCSH BKN035
     FM261700 22014G22KT P6SM BKN050
     FM262300 21005KT P6SM SCT040 BKN080=

USA.gov is the U.S. government's official web portal to all federal, state and local government web resources and services.